WXM80 ListenWXM80 Stop

You find our weather info also at:

UK Metoffice

WeatherCloud

Weather Underground

Northeastern Weather Network

AWEKAS

Citizen Weather Observer Program (CWOP)

HAMweather, WeatherForYou, PWS Weather


Weather Underground History page Text

Daily Summary for June 22, 2016 Units:  English    Metric   Both
« Previous Day
Next Day »
Daily Weekly Monthly Yearly Custom
  High: Low: Average:
Temperature: 90.5 °F 60.0 °F 73.9 °F
Dew Point: 68.1 °F 54.7 °F 58.8 °F
Humidity: 94 % 34 % 62 %
Wind Speed: 6.6 mph 0.0 mph 1.3 mph
Wind Gust: 15.0 mph - -
Wind:- - SW
Pressure: 29.90 in 29.76 in -
Precipitation: 0.00 in    
Historical Graphs
 
 
Tabular Data for June 22, 2016
Time Temperature Dew Point Pressure Wind Wind Speed Wind Gust Humidity Rainfall Rate (Hourly)
00:01 68.1 °F 55.9 °F 29.78 in Calm   1.2 mph 65 % 0.00 in
00:06 68.0 °F 56.2 °F 29.78 in Calm     66 % 0.00 in
00:12 67.7 °F 56.3 °F 29.78 in Calm   2.3 mph 67 % 0.00 in
00:17 67.6 °F 55.8 °F 29.78 in Calm     66 % 0.00 in
00:27 67.2 °F 55.5 °F 29.78 in NNW 0.1 mph 1.2 mph 66 % 0.00 in
00:32 67.0 °F 55.3 °F 29.78 in Calm     66 % 0.00 in
00:37 66.8 °F 55.1 °F 29.78 in Calm     66 % 0.00 in
00:42 66.6 °F 55.3 °F 29.78 in NNW 0.3 mph 1.2 mph 67 % 0.00 in
00:47 66.4 °F 55.1 °F 29.79 in Calm     67 % 0.00 in
00:52 66.2 °F 55.3 °F 29.79 in Calm   1.2 mph 68 % 0.00 in
00:57 66.0 °F 55.1 °F 29.78 in NNW 0.1 mph 1.2 mph 68 % 0.00 in
01:03 65.8 °F 54.9 °F 29.79 in Calm   1.2 mph 68 % 0.00 in
01:08 65.7 °F 54.8 °F 29.79 in Calm     68 % 0.00 in
01:13 65.5 °F 55.1 °F 29.79 in Calm     69 % 0.00 in
01:23 65.2 °F 55.2 °F 29.78 in Calm     70 % 0.00 in
01:28 65.1 °F 55.5 °F 29.78 in Calm     71 % 0.00 in
01:33 64.9 °F 55.7 °F 29.78 in Calm     72 % 0.00 in
01:38 64.7 °F 55.5 °F 29.78 in Calm     72 % 0.00 in
01:43 64.5 °F 55.3 °F 29.78 in Calm     72 % 0.00 in
01:49 64.4 °F 55.2 °F 29.78 in Calm     72 % 0.00 in
01:59 64.1 °F 55.6 °F 29.78 in Calm     74 % 0.00 in
02:04 64.1 °F 55.6 °F 29.77 in Calm     74 % 0.00 in
02:09 64.0 °F 55.9 °F 29.78 in Calm     75 % 0.00 in
02:14 64.0 °F 56.3 °F 29.78 in NNW 0.1 mph 2.3 mph 76 % 0.00 in
02:19 63.9 °F 56.2 °F 29.78 in NNW 0.8 mph 2.0 mph 76 % 0.00 in
02:24 63.8 °F 56.1 °F 29.78 in Calm   1.2 mph 76 % 0.00 in
02:29 63.8 °F 56.1 °F 29.78 in Calm   1.2 mph 76 % 0.00 in
02:45 63.6 °F 56.3 °F 29.78 in Calm     77 % 0.00 in
02:50 63.6 °F 56.3 °F 29.78 in Calm     77 % 0.00 in
02:55 63.6 °F 56.3 °F 29.78 in Calm     77 % 0.00 in
03:00 63.6 °F 56.6 °F 29.78 in Calm     78 % 0.00 in
03:05 63.5 °F 56.5 °F 29.78 in Calm     78 % 0.00 in
03:10 63.4 °F 56.4 °F 29.78 in Calm     78 % 0.00 in
03:15 63.3 °F 56.3 °F 29.78 in Calm     78 % 0.00 in
03:20 63.2 °F 56.2 °F 29.78 in Calm     78 % 0.00 in
03:25 63.1 °F 56.5 °F 29.78 in Calm     79 % 0.00 in
03:31 63.0 °F 56.4 °F 29.78 in Calm     79 % 0.00 in
03:36 62.9 °F 56.3 °F 29.78 in Calm     79 % 0.00 in
03:41 62.7 °F 56.4 °F 29.78 in Calm   1.2 mph 80 % 0.00 in
03:46 62.6 °F 56.3 °F 29.78 in Calm     80 % 0.00 in
03:51 62.5 °F 56.2 °F 29.78 in Calm     80 % 0.00 in
03:56 62.4 °F 56.5 °F 29.77 in Calm     81 % 0.00 in
04:01 62.3 °F 56.4 °F 29.78 in Calm     81 % 0.00 in
04:06 62.2 °F 56.3 °F 29.78 in Calm     81 % 0.00 in
04:11 62.1 °F 56.5 °F 29.78 in Calm     82 % 0.00 in
04:13 62.1 °F 56.5 °F 29.78 in Calm     82 % 0.00 in
04:18 62.0 °F 56.4 °F 29.78 in Calm     82 % 0.00 in
04:23 61.9 °F 56.3 °F 29.78 in Calm     82 % 0.00 in
04:28 61.8 °F 56.6 °F 29.77 in Calm     83 % 0.00 in
04:33 61.7 °F 56.5 °F 29.78 in NNW 0.1 mph 1.2 mph 83 % 0.00 in
04:38 61.5 °F 56.3 °F 29.77 in Calm     83 % 0.00 in
04:43 61.4 °F 56.5 °F 29.77 in Calm     84 % 0.00 in
04:48 61.3 °F 56.4 °F 29.77 in Calm     84 % 0.00 in
04:53 61.2 °F 56.3 °F 29.77 in Calm     84 % 0.00 in
04:58 61.0 °F 56.5 °F 29.77 in Calm     85 % 0.00 in
05:04 60.9 °F 56.4 °F 29.77 in NNW 0.1 mph 1.2 mph 85 % 0.00 in
05:09 60.7 °F 56.5 °F 29.77 in Calm     86 % 0.00 in
05:14 60.6 °F 56.1 °F 29.77 in Calm     85 % 0.00 in
05:19 60.5 °F 56.3 °F 29.77 in Calm     86 % 0.00 in
05:24 60.4 °F 56.2 °F 29.78 in Calm     86 % 0.00 in
05:29 60.3 °F 56.1 °F 29.78 in Calm     86 % 0.00 in
05:34 60.3 °F 56.4 °F 29.77 in Calm     87 % 0.00 in
05:39 60.2 °F 56.3 °F 29.77 in Calm     87 % 0.00 in
05:44 60.1 °F 56.2 °F 29.78 in Calm     87 % 0.00 in
05:49 60.0 °F 56.1 °F 29.78 in Calm     87 % 0.00 in
05:55 60.0 °F 56.4 °F 29.78 in Calm     88 % 0.00 in
06:00 60.0 °F 56.4 °F 29.78 in Calm     88 % 0.00 in
06:05 60.0 °F 56.7 °F 29.78 in NNW 0.1 mph 2.3 mph 89 % 0.00 in
06:10 60.0 °F 57.1 °F 29.78 in NNW 0.4 mph 1.2 mph 90 % 0.00 in
06:15 60.0 °F 57.1 °F 29.78 in Calm   1.2 mph 90 % 0.00 in
06:20 60.1 °F 57.2 °F 29.78 in Calm     90 % 0.00 in
06:25 60.3 °F 57.7 °F 29.79 in Calm     91 % 0.00 in
06:30 60.6 °F 58.3 °F 29.79 in Calm     92 % 0.00 in
06:35 61.0 °F 59.0 °F 29.79 in Calm   1.2 mph 93 % 0.00 in
06:40 61.5 °F 59.8 °F 29.78 in Calm     94 % 0.00 in
06:46 62.1 °F 60.4 °F 29.78 in Calm     94 % 0.00 in
06:51 62.8 °F 61.0 °F 29.78 in Calm     94 % 0.00 in
06:56 63.5 °F 61.7 °F 29.78 in Calm     94 % 0.00 in
07:01 64.1 °F 62.0 °F 29.78 in Calm     93 % 0.00 in
07:06 64.5 °F 62.4 °F 29.78 in Calm     93 % 0.00 in
07:11 64.8 °F 62.4 °F 29.78 in Calm     92 % 0.00 in
07:16 64.9 °F 61.9 °F 29.78 in Calm     90 % 0.00 in
07:21 65.2 °F 61.9 °F 29.78 in Calm     89 % 0.00 in
07:26 65.5 °F 62.2 °F 29.78 in Calm   1.2 mph 89 % 0.00 in
07:31 65.9 °F 62.2 °F 29.78 in Calm     88 % 0.00 in
07:37 66.1 °F 62.1 °F 29.78 in Calm     87 % 0.00 in
07:42 66.4 °F 62.1 °F 29.78 in Calm     86 % 0.00 in
07:47 66.7 °F 62.4 °F 29.78 in Calm     86 % 0.00 in
07:52 67.1 °F 62.8 °F 29.77 in Calm     86 % 0.00 in
07:57 67.6 °F 63.3 °F 29.77 in Calm     86 % 0.00 in
08:02 67.9 °F 62.9 °F 29.77 in NNW 0.2 mph 2.3 mph 84 % 0.00 in
08:07 68.1 °F 63.1 °F 29.78 in NNW 1.4 mph 3.0 mph 84 % 0.00 in
08:12 68.3 °F 62.2 °F 29.78 in NNW 1.3 mph 3.5 mph 81 % 0.00 in
08:17 68.3 °F 62.2 °F 29.78 in NNW 0.2 mph 1.2 mph 81 % 0.00 in
08:22 68.5 °F 61.7 °F 29.78 in Calm     79 % 0.00 in
08:28 68.7 °F 62.6 °F 29.77 in NNW 1.0 mph 2.3 mph 81 % 0.00 in
08:33 68.9 °F 63.2 °F 29.77 in NNW 2.5 mph 3.5 mph 82 % 0.00 in
08:38 69.0 °F 62.6 °F 29.77 in Calm   2.3 mph 80 % 0.00 in
08:43 69.3 °F 62.5 °F 29.78 in Calm   1.2 mph 79 % 0.00 in
08:48 69.4 °F 62.6 °F 29.78 in NNE 2.8 mph 3.5 mph 79 % 0.00 in
08:53 69.5 °F 62.7 °F 29.77 in NNE 0.8 mph 2.3 mph 79 % 0.00 in
08:58 69.6 °F 61.7 °F 29.77 in NNE 0.4 mph 1.2 mph 76 % 0.00 in
09:03 69.7 °F 62.2 °F 29.78 in NNE 1.2 mph 2.3 mph 77 % 0.00 in
09:08 69.7 °F 61.8 °F 29.77 in Calm   2.3 mph 76 % 0.00 in
09:13 69.8 °F 61.9 °F 29.77 in NNE 1.3 mph 2.3 mph 76 % 0.00 in
09:19 70.0 °F 62.5 °F 29.77 in NE 1.3 mph 3.5 mph 77 % 0.00 in
09:24 70.1 °F 62.2 °F 29.77 in NE 1.5 mph 3.5 mph 76 % 0.00 in
09:29 70.3 °F 63.1 °F 29.78 in East 1.6 mph 3.5 mph 78 % 0.00 in
09:34 70.6 °F 63.0 °F 29.77 in NE 2.5 mph 4.0 mph 77 % 0.00 in
09:44 71.1 °F 63.5 °F 29.76 in ENE 0.1 mph 1.2 mph 77 % 0.00 in
09:49 71.5 °F 63.9 °F 29.77 in NNE 3.0 mph 4.0 mph 77 % 0.00 in
09:54 72.2 °F 63.4 °F 29.76 in NNE 1.1 mph 3.5 mph 74 % 0.00 in
09:59 73.2 °F 63.6 °F 29.77 in NNE 0.2 mph 1.2 mph 72 % 0.00 in
10:04 74.2 °F 65.0 °F 29.77 in NNE 0.6 mph 3.5 mph 73 % 0.00 in
10:10 75.3 °F 65.2 °F 29.77 in North 1.5 mph 3.5 mph 71 % 0.00 in
10:15 76.3 °F 65.4 °F 29.77 in NNE 1.9 mph 2.0 mph 69 % 0.00 in
10:20 77.2 °F 65.0 °F 29.78 in NW 1.7 mph 4.0 mph 66 % 0.00 in
10:25 77.8 °F 66.0 °F 29.79 in NNW 1.2 mph 3.5 mph 67 % 0.00 in
10:30 78.5 °F 65.3 °F 29.80 in NNE 3.5 mph 5.8 mph 64 % 0.00 in
10:35 78.8 °F 66.0 °F 29.79 in NE 3.3 mph 5.8 mph 65 % 0.00 in
10:40 78.9 °F 64.3 °F 29.78 in NNE 4.2 mph 5.8 mph 61 % 0.00 in
10:45 79.1 °F 65.4 °F 29.78 in NNE 3.0 mph 5.8 mph 63 % 0.00 in
10:50 79.6 °F 65.4 °F 29.78 in North 2.9 mph 3.5 mph 62 % 0.00 in
10:55 79.9 °F 65.2 °F 29.78 in North 1.4 mph 3.5 mph 61 % 0.00 in
11:01 80.2 °F 65.1 °F 29.78 in NNE 1.6 mph 3.5 mph 60 % 0.00 in
11:06 80.7 °F 65.5 °F 29.77 in North 1.9 mph 3.5 mph 60 % 0.00 in
11:11 81.1 °F 65.9 °F 29.77 in NNW 0.3 mph 2.3 mph 60 % 0.00 in
11:16 82.1 °F 65.9 °F 29.77 in NNW 1.5 mph 3.5 mph 58 % 0.00 in
11:21 82.7 °F 64.9 °F 29.78 in NE 1.2 mph 3.5 mph 55 % 0.00 in
11:26 83.1 °F 66.8 °F 29.78 in NE 0.8 mph 2.3 mph 58 % 0.00 in
11:31 83.7 °F 67.4 °F 29.77 in NE 0.8 mph 2.0 mph 58 % 0.00 in
11:36 83.8 °F 66.9 °F 29.77 in NE 0.5 mph 2.3 mph 57 % 0.00 in
11:41 83.6 °F 66.8 °F 29.77 in North 2.7 mph 5.0 mph 57 % 0.00 in
11:46 83.4 °F 66.1 °F 29.77 in NNE 2.4 mph 4.0 mph 56 % 0.00 in
11:52 83.4 °F 66.6 °F 29.77 in NNE 0.3 mph 3.5 mph 57 % 0.00 in
12:02 83.7 °F 65.3 °F 29.77 in North 0.6 mph 2.3 mph 54 % 0.00 in
12:07 83.9 °F 66.0 °F 29.77 in North 0.3 mph 1.2 mph 55 % 0.00 in
12:12 84.7 °F 67.8 °F 29.77 in ENE 0.8 mph 1.2 mph 57 % 0.00 in
12:17 84.5 °F 68.1 °F 29.77 in NE 0.2 mph 3.5 mph 58 % 0.00 in
12:22 84.5 °F 63.8 °F 29.77 in WNW 0.7 mph 3.5 mph 50 % 0.00 in
12:27 85.4 °F 64.1 °F 29.77 in WSW 3.6 mph 6.9 mph 49 % 0.00 in
12:32 86.1 °F 64.1 °F 29.76 in North 0.9 mph 3.5 mph 48 % 0.00 in
12:37 86.5 °F 62.6 °F 29.76 in WNW 0.7 mph 3.5 mph 45 % 0.00 in
12:43 87.1 °F 63.8 °F 29.77 in NW 1.5 mph 3.0 mph 46 % 0.00 in
12:48 87.5 °F 64.8 °F 29.77 in SSW 4.3 mph 8.1 mph 47 % 0.00 in
12:53 88.1 °F 64.7 °F 29.76 in NW 1.8 mph 7.0 mph 46 % 0.00 in
12:58 88.7 °F 62.7 °F 29.77 in WNW 1.1 mph 3.5 mph 42 % 0.00 in
13:03 89.1 °F 61.6 °F 29.77 in WNW 4.0 mph 6.9 mph 40 % 0.00 in
13:08 89.3 °F 61.1 °F 29.76 in West 0.9 mph 3.5 mph 39 % 0.00 in
13:13 89.6 °F 64.1 °F 29.77 in NNW 3.1 mph 8.1 mph 43 % 0.00 in
13:18 89.8 °F 61.5 °F 29.77 in WSW 4.4 mph 6.9 mph 39 % 0.00 in
13:23 90.1 °F 61.8 °F 29.76 in WNW 2.6 mph 7.0 mph 39 % 0.00 in
13:28 90.5 °F 59.9 °F 29.77 in WNW 2.3 mph 4.6 mph 36 % 0.00 in
13:34 90.4 °F 58.2 °F 29.77 in West 1.5 mph 11.5 mph 34 % 0.00 in
13:39 90.2 °F 60.4 °F 29.77 in NNW 1.9 mph 6.9 mph 37 % 0.00 in
13:44 90.4 °F 62.1 °F 29.77 in WNW 4.5 mph 7.0 mph 39 % 0.00 in
13:49 90.5 °F 59.9 °F 29.77 in NNW 3.6 mph 11.5 mph 36 % 0.00 in
13:54 90.1 °F 58.8 °F 29.77 in WNW 4.5 mph 9.2 mph 35 % 0.00 in
13:59 89.9 °F 59.4 °F 29.77 in SW 3.7 mph 8.1 mph 36 % 0.00 in
14:04 89.9 °F 65.1 °F 29.77 in WNW 5.3 mph 7.0 mph 44 % 0.00 in
14:09 90.1 °F 61.8 °F 29.77 in WSW 2.7 mph 5.0 mph 39 % 0.00 in
14:14 90.1 °F 60.3 °F 29.77 in WNW 6.1 mph 9.0 mph 37 % 0.00 in
14:20 89.9 °F 61.6 °F 29.77 in WNW 3.7 mph 11.5 mph 39 % 0.00 in
14:25 90.0 °F 61.0 °F 29.77 in West 3.4 mph 6.9 mph 38 % 0.00 in
14:30 89.7 °F 61.5 °F 29.77 in NNE 2.7 mph 10.4 mph 39 % 0.00 in
14:35 89.5 °F 62.7 °F 29.78 in WNW 5.6 mph 12.7 mph 41 % 0.00 in
14:40 89.0 °F 61.5 °F 29.77 in NNE 3.7 mph 8.1 mph 40 % 0.00 in
14:45 88.8 °F 63.4 °F 29.78 in WNW 2.4 mph 6.9 mph 43 % 0.00 in
14:55 89.0 °F 59.3 °F 29.78 in West 4.6 mph 9.2 mph 37 % 0.00 in
15:00 88.6 °F 58.2 °F 29.78 in NNE 3.1 mph 9.2 mph 36 % 0.00 in
15:05 87.8 °F 56.7 °F 29.78 in WNW 6.4 mph 15.0 mph 35 % 0.00 in
15:11 87.1 °F 58.4 °F 29.78 in NNW 2.9 mph 11.5 mph 38 % 0.00 in
15:16 87.0 °F 57.6 °F 29.78 in WNW 4.9 mph 9.2 mph 37 % 0.00 in
15:21 87.3 °F 59.3 °F 29.79 in NW 6.2 mph 12.7 mph 39 % 0.00 in
15:26 87.2 °F 59.2 °F 29.78 in West 6.3 mph 11.5 mph 39 % 0.00 in
15:31 87.0 °F 59.8 °F 29.78 in WNW 4.6 mph 10.0 mph 40 % 0.00 in
15:36 86.8 °F 58.1 °F 29.78 in NNW 5.7 mph 11.5 mph 38 % 0.00 in
15:41 86.7 °F 58.1 °F 29.78 in SSW 4.3 mph 10.4 mph 38 % 0.00 in
15:46 86.7 °F 58.1 °F 29.78 in WSW 4.9 mph 8.1 mph 38 % 0.00 in
15:56 86.5 °F 55.6 °F 29.79 in West 4.7 mph 9.2 mph 35 % 0.00 in
16:02 86.5 °F 55.6 °F 29.79 in NW 6.6 mph 11.5 mph 35 % 0.00 in
16:07 86.6 °F 55.7 °F 29.79 in WNW 4.7 mph 11.5 mph 35 % 0.00 in
16:12 86.5 °F 55.6 °F 29.79 in NNW 5.0 mph 13.8 mph 35 % 0.00 in
16:17 86.3 °F 55.4 °F 29.79 in NW 5.1 mph 9.0 mph 35 % 0.00 in
16:22 86.3 °F 56.2 °F 29.79 in NW 1.7 mph 10.0 mph 36 % 0.00 in
16:27 86.4 °F 54.7 °F 29.80 in WNW 4.6 mph 10.4 mph 34 % 0.00 in
16:32 86.3 °F 55.4 °F 29.80 in North 5.0 mph 11.5 mph 35 % 0.00 in
16:42 86.2 °F 55.3 °F 29.80 in NW 3.4 mph 4.6 mph 35 % 0.00 in
16:47 85.9 °F 55.8 °F 29.80 in North 3.8 mph 5.8 mph 36 % 0.00 in
16:53 85.7 °F 54.9 °F 29.80 in West 4.4 mph 10.4 mph 35 % 0.00 in
16:58 85.4 °F 55.4 °F 29.80 in SSW 3.4 mph 10.4 mph 36 % 0.00 in
17:08 85.0 °F 57.3 °F 29.80 in West 4.6 mph 7.0 mph 39 % 0.00 in
17:13 84.8 °F 54.9 °F 29.81 in NNW 4.0 mph 9.2 mph 36 % 0.00 in
17:18 84.4 °F 56.0 °F 29.81 in WNW 1.0 mph 4.6 mph 38 % 0.00 in
17:23 83.8 °F 55.5 °F 29.80 in West 2.1 mph 9.2 mph 38 % 0.00 in
17:28 83.5 °F 58.6 °F 29.81 in NW 4.3 mph 8.1 mph 43 % 0.00 in
17:33 82.8 °F 56.7 °F 29.80 in WSW 2.8 mph 3.5 mph 41 % 0.00 in
17:38 82.5 °F 55.0 °F 29.80 in NNW 1.7 mph 5.8 mph 39 % 0.00 in
17:44 82.3 °F 55.6 °F 29.80 in WNW 2.6 mph 3.5 mph 40 % 0.00 in
17:54 81.8 °F 56.5 °F 29.80 in NW 3.0 mph 4.6 mph 42 % 0.00 in
17:59 81.6 °F 56.3 °F 29.80 in WNW 3.2 mph 5.0 mph 42 % 0.00 in
18:04 81.3 °F 56.7 °F 29.80 in NW 2.9 mph 9.2 mph 43 % 0.00 in
18:09 81.1 °F 55.8 °F 29.80 in NW 0.6 mph 2.3 mph 42 % 0.00 in
18:14 80.9 °F 55.7 °F 29.80 in WNW 0.8 mph 2.3 mph 42 % 0.00 in
18:19 80.8 °F 55.6 °F 29.80 in WNW 3.0 mph 5.8 mph 42 % 0.00 in
18:24 80.8 °F 57.5 °F 29.80 in WSW 1.7 mph 3.5 mph 45 % 0.00 in
18:35 80.6 °F 56.7 °F 29.81 in WNW 2.8 mph 3.5 mph 44 % 0.00 in
18:40 80.4 °F 56.5 °F 29.81 in NW 2.8 mph 3.5 mph 44 % 0.00 in
18:45 80.3 °F 55.8 °F 29.81 in NW 2.5 mph 2.5 mph 43 % 0.00 in
18:50 80.2 °F 55.7 °F 29.81 in WSW 1.4 mph 5.8 mph 43 % 0.00 in
18:55 80.2 °F 55.0 °F 29.81 in WSW 2.7 mph 4.6 mph 42 % 0.00 in
19:00 80.1 °F 56.2 °F 29.81 in NW 1.1 mph 4.6 mph 44 % 0.00 in
19:05 80.0 °F 54.8 °F 29.82 in WSW 1.7 mph 6.0 mph 42 % 0.00 in
19:10 79.8 °F 55.3 °F 29.82 in NW 2.1 mph 3.5 mph 43 % 0.00 in
19:15 79.7 °F 57.7 °F 29.82 in North 0.1 mph 1.2 mph 47 % 0.00 in
19:20 79.5 °F 56.9 °F 29.82 in West 1.6 mph 3.5 mph 46 % 0.00 in
19:26 79.4 °F 57.4 °F 29.82 in WNW 2.6 mph 3.5 mph 47 % 0.00 in
19:31 79.3 °F 56.1 °F 29.82 in NW 1.1 mph 4.6 mph 45 % 0.00 in
19:36 79.2 °F 56.6 °F 29.82 in NW 2.5 mph 4.6 mph 46 % 0.00 in
19:41 79.0 °F 55.8 °F 29.83 in WNW 2.2 mph 4.6 mph 45 % 0.00 in
19:46 78.8 °F 55.7 °F 29.82 in WNW 0.4 mph 2.3 mph 45 % 0.00 in
19:51 78.7 °F 56.8 °F 29.83 in WNW 1.3 mph 5.8 mph 47 % 0.00 in
19:56 78.4 °F 56.5 °F 29.82 in WNW 3.5 mph 5.8 mph 47 % 0.00 in
20:01 78.1 °F 56.8 °F 29.82 in WNW 0.9 mph 3.5 mph 48 % 0.00 in
20:06 77.9 °F 56.0 °F 29.82 in WNW 2.0 mph 4.6 mph 47 % 0.00 in
20:11 77.6 °F 56.9 °F 29.82 in WNW 0.9 mph 3.5 mph 49 % 0.00 in
20:17 77.3 °F 56.6 °F 29.82 in West 0.6 mph 2.0 mph 49 % 0.00 in
20:22 77.0 °F 55.8 °F 29.83 in West 0.7 mph 2.3 mph 48 % 0.00 in
20:27 76.7 °F 56.7 °F 29.83 in West 0.1 mph 1.2 mph 50 % 0.00 in
20:32 76.4 °F 56.4 °F 29.83 in West 0.3 mph 1.2 mph 50 % 0.00 in
20:37 76.2 °F 56.7 °F 29.83 in Calm     51 % 0.00 in
20:42 76.0 °F 57.1 °F 29.84 in Calm     52 % 0.00 in
20:47 75.7 °F 57.4 °F 29.84 in Calm   1.2 mph 53 % 0.00 in
20:52 75.5 °F 57.2 °F 29.84 in Calm     53 % 0.00 in
20:57 75.3 °F 57.5 °F 29.84 in West 0.3 mph 1.2 mph 54 % 0.00 in
21:02 75.0 °F 57.7 °F 29.84 in West 0.6 mph 1.2 mph 55 % 0.00 in
21:08 74.7 °F 58.0 °F 29.85 in Calm     56 % 0.00 in
21:13 74.4 °F 58.2 °F 29.85 in Calm     57 % 0.00 in
21:18 74.0 °F 58.3 °F 29.85 in Calm     58 % 0.00 in
21:23 73.7 °F 58.0 °F 29.85 in West 0.2 mph 1.2 mph 58 % 0.00 in
21:28 73.3 °F 57.6 °F 29.86 in West 0.2 mph 1.2 mph 58 % 0.00 in
21:33 73.0 °F 57.8 °F 29.86 in Calm     59 % 0.00 in
21:38 72.6 °F 57.9 °F 29.86 in Calm     60 % 0.00 in
21:43 72.2 °F 57.5 °F 29.86 in Calm     60 % 0.00 in
21:48 71.9 °F 57.3 °F 29.87 in Calm     60 % 0.00 in
21:53 71.6 °F 57.0 °F 29.87 in Calm     60 % 0.00 in
21:59 71.2 °F 57.1 °F 29.87 in Calm     61 % 0.00 in
22:04 70.8 °F 56.7 °F 29.87 in Calm     61 % 0.00 in
22:09 70.5 °F 56.9 °F 29.87 in Calm     62 % 0.00 in
22:14 70.2 °F 56.6 °F 29.88 in Calm     62 % 0.00 in
22:19 69.8 °F 56.2 °F 29.88 in Calm     62 % 0.00 in
22:24 69.5 °F 55.9 °F 29.88 in Calm     62 % 0.00 in
22:29 69.3 °F 56.2 °F 29.88 in Calm     63 % 0.00 in
22:34 69.0 °F 56.3 °F 29.88 in Calm     64 % 0.00 in
22:39 68.8 °F 56.1 °F 29.89 in Calm     64 % 0.00 in
22:44 68.6 °F 56.8 °F 29.89 in Calm     66 % 0.00 in
22:50 68.4 °F 56.2 °F 29.89 in Calm   1.0 mph 65 % 0.00 in
22:55 68.2 °F 56.4 °F 29.89 in Calm   1.2 mph 66 % 0.00 in
23:00 68.0 °F 56.2 °F 29.89 in West 0.3 mph 2.3 mph 66 % 0.00 in
23:05 67.8 °F 56.4 °F 29.89 in West 0.1 mph 1.2 mph 67 % 0.00 in
23:10 67.6 °F 56.2 °F 29.89 in Calm     67 % 0.00 in
23:15 67.5 °F 56.2 °F 29.89 in Calm   1.2 mph 67 % 0.00 in
23:20 67.4 °F 56.1 °F 29.89 in Calm     67 % 0.00 in
23:25 67.2 °F 55.9 °F 29.89 in Calm     67 % 0.00 in
23:30 67.1 °F 56.2 °F 29.89 in Calm     68 % 0.00 in
23:35 67.0 °F 56.1 °F 29.89 in Calm     68 % 0.00 in
23:41 67.0 °F 56.1 °F 29.90 in West 0.3 mph 1.2 mph 68 % 0.00 in
23:46 66.9 °F 56.0 °F 29.90 in Calm   1.2 mph 68 % 0.00 in
23:51 66.8 °F 55.9 °F 29.90 in Calm     68 % 0.00 in
23:56 66.7 °F 56.6 °F 29.90 in Calm     70 % 0.00 in
Crab Meadow Weather
Compliments of Weather Underground - 2.75 mb

Script developed by  Jim McMurry - jmcmurry@mwt.net Adapted for the template by  Wim van der Kuil - Leuven-Template.eu

Lightning: The average number of deaths from lightning is more than 100 a year with several more deaths from lightning related fires. Lightning injuries account for 3-5 times than those of lightning deaths.